sensor_id;sensor_type;location;lat;lon;timestamp;temperature;humidity
18581;DHT22;9420;50.876;7.012;2023-09-19T00:01:39;16.53;74.30
18581;DHT22;9420;50.876;7.012;2023-09-19T00:04:07;16.63;73.67
18581;DHT22;9420;50.876;7.012;2023-09-19T00:06:35;16.66;73.47
18581;DHT22;9420;50.876;7.012;2023-09-19T00:09:02;16.52;73.88
18581;DHT22;9420;50.876;7.012;2023-09-19T00:11:29;16.53;73.58
18581;DHT22;9420;50.876;7.012;2023-09-19T00:13:56;16.67;73.01
18581;DHT22;9420;50.876;7.012;2023-09-19T00:16:24;16.62;73.22
18581;DHT22;9420;50.876;7.012;2023-09-19T00:18:51;16.70;72.61
18581;DHT22;9420;50.876;7.012;2023-09-19T00:21:19;16.72;72.63
18581;DHT22;9420;50.876;7.012;2023-09-19T00:23:46;16.65;72.84
18581;DHT22;9420;50.876;7.012;2023-09-19T00:26:12;16.69;72.48
18581;DHT22;9420;50.876;7.012;2023-09-19T00:28:39;16.66;72.52
18581;DHT22;9420;50.876;7.012;2023-09-19T00:31:07;16.52;73.40
18581;DHT22;9420;50.876;7.012;2023-09-19T00:33:34;16.53;72.82
18581;DHT22;9420;50.876;7.012;2023-09-19T00:36:02;16.52;72.74
18581;DHT22;9420;50.876;7.012;2023-09-19T00:38:32;16.28;74.49
18581;DHT22;9420;50.876;7.012;2023-09-19T00:40:59;16.55;72.85
18581;DHT22;9420;50.876;7.012;2023-09-19T00:43:26;16.56;72.93
18581;DHT22;9420;50.876;7.012;2023-09-19T00:45:54;16.67;72.41
18581;DHT22;9420;50.876;7.012;2023-09-19T00:48:22;16.63;73.05
18581;DHT22;9420;50.876;7.012;2023-09-19T00:50:50;16.62;72.71
18581;DHT22;9420;50.876;7.012;2023-09-19T00:53:21;16.65;72.31
18581;DHT22;9420;50.876;7.012;2023-09-19T00:55:54;16.72;72.53
18581;DHT22;9420;50.876;7.012;2023-09-19T00:58:21;16.45;74.15
18581;DHT22;9420;50.876;7.012;2023-09-19T01:00:48;16.73;72.29
18581;DHT22;9420;50.876;7.012;2023-09-19T01:03:15;16.77;72.39
18581;DHT22;9420;50.876;7.012;2023-09-19T01:05:43;16.97;71.30
18581;DHT22;9420;50.876;7.012;2023-09-19T01:08:10;17.00;71.78
18581;DHT22;9420;50.876;7.012;2023-09-19T01:10:46;16.97;71.51
18581;DHT22;9420;50.876;7.012;2023-09-19T01:13:22;17.07;71.24
18581;DHT22;9420;50.876;7.012;2023-09-19T01:16:01;17.07;71.45
18581;DHT22;9420;50.876;7.012;2023-09-19T01:18:40;17.04;71.29
18581;DHT22;9420;50.876;7.012;2023-09-19T01:21:15;16.94;71.75
18581;DHT22;9420;50.876;7.012;2023-09-19T01:24:08;16.93;71.64
18581;DHT22;9420;50.876;7.012;2023-09-19T01:26:52;16.91;71.44
18581;DHT22;9420;50.876;7.012;2023-09-19T01:29:33;16.86;71.49
18581;DHT22;9420;50.876;7.012;2023-09-19T01:32:06;16.90;71.51
18581;DHT22;9420;50.876;7.012;2023-09-19T01:34:45;16.93;71.05
18581;DHT22;9420;50.876;7.012;2023-09-19T01:37:13;16.96;70.97
18581;DHT22;9420;50.876;7.012;2023-09-19T01:39:44;16.84;71.84
18581;DHT22;9420;50.876;7.012;2023-09-19T01:42:23;16.80;71.33
18581;DHT22;9420;50.876;7.012;2023-09-19T01:44:56;16.63;71.92
18581;DHT22;9420;50.876;7.012;2023-09-19T01:47:32;16.60;71.95
18581;DHT22;9420;50.876;7.012;2023-09-19T01:50:11;16.65;71.71
18581;DHT22;9420;50.876;7.012;2023-09-19T01:52:45;16.66;71.55
18581;DHT22;9420;50.876;7.012;2023-09-19T01:55:14;16.60;71.97
18581;DHT22;9420;50.876;7.012;2023-09-19T01:57:57;16.52;71.86
18581;DHT22;9420;50.876;7.012;2023-09-19T02:00:26;16.49;71.97
18581;DHT22;9420;50.876;7.012;2023-09-19T02:02:56;16.38;72.10
18581;DHT22;9420;50.876;7.012;2023-09-19T02:05:25;16.41;71.85
18581;DHT22;9420;50.876;7.012;2023-09-19T02:07:52;16.35;72.10
18581;DHT22;9420;50.876;7.012;2023-09-19T02:10:21;16.35;71.77
18581;DHT22;9420;50.876;7.012;2023-09-19T02:12:47;16.29;71.92
18581;DHT22;9420;50.876;7.012;2023-09-19T02:15:15;16.25;71.63
18581;DHT22;9420;50.876;7.012;2023-09-19T02:17:42;16.21;71.77
18581;DHT22;9420;50.876;7.012;2023-09-19T02:20:11;16.18;71.85
18581;DHT22;9420;50.876;7.012;2023-09-19T02:22:40;16.12;71.98
18581;DHT22;9420;50.876;7.012;2023-09-19T02:25:08;16.09;72.15
18581;DHT22;9420;50.876;7.012;2023-09-19T02:27:34;16.07;72.13
18581;DHT22;9420;50.876;7.012;2023-09-19T02:30:01;16.02;72.14
18581;DHT22;9420;50.876;7.012;2023-09-19T02:32:29;16.00;72.26
18581;DHT22;9420;50.876;7.012;2023-09-19T02:34:56;15.87;72.71
18581;DHT22;9420;50.876;7.012;2023-09-19T02:37:25;15.90;72.45
18581;DHT22;9420;50.876;7.012;2023-09-19T02:39:52;15.90;72.52
18581;DHT22;9420;50.876;7.012;2023-09-19T02:42:19;15.87;72.62
18581;DHT22;9420;50.876;7.012;2023-09-19T02:44:45;15.84;72.58
18581;DHT22;9420;50.876;7.012;2023-09-19T02:47:13;15.83;72.96
18581;DHT22;9420;50.876;7.012;2023-09-19T02:49:42;15.86;72.67
18581;DHT22;9420;50.876;7.012;2023-09-19T02:52:09;15.73;73.15
18581;DHT22;9420;50.876;7.012;2023-09-19T02:54:38;15.70;73.22
18581;DHT22;9420;50.876;7.012;2023-09-19T02:57:05;15.74;73.10
18581;DHT22;9420;50.876;7.012;2023-09-19T02:59:33;15.64;73.46
18581;DHT22;9420;50.876;7.012;2023-09-19T03:02:03;15.67;73.22
18581;DHT22;9420;50.876;7.012;2023-09-19T03:04:30;15.63;73.59
18581;DHT22;9420;50.876;7.012;2023-09-19T03:06:58;15.61;73.58
18581;DHT22;9420;50.876;7.012;2023-09-19T03:09:26;15.59;73.55
18581;DHT22;9420;50.876;7.012;2023-09-19T03:11:54;15.59;73.48
18581;DHT22;9420;50.876;7.012;2023-09-19T03:14:21;15.53;73.84
18581;DHT22;9420;50.876;7.012;2023-09-19T03:16:49;15.61;73.27
18581;DHT22;9420;50.876;7.012;2023-09-19T03:19:17;15.54;73.53
18581;DHT22;9420;50.876;7.012;2023-09-19T03:21:46;15.57;73.21
18581;DHT22;9420;50.876;7.012;2023-09-19T03:24:16;15.51;73.33
18581;DHT22;9420;50.876;7.012;2023-09-19T03:26:42;15.60;73.22
18581;DHT22;9420;50.876;7.012;2023-09-19T03:29:12;15.56;73.29
18581;DHT22;9420;50.876;7.012;2023-09-19T03:31:39;15.59;73.05
18581;DHT22;9420;50.876;7.012;2023-09-19T03:34:06;15.59;73.00
18581;DHT22;9420;50.876;7.012;2023-09-19T03:36:34;15.54;73.14
18581;DHT22;9420;50.876;7.012;2023-09-19T03:39:01;15.53;73.07
18581;DHT22;9420;50.876;7.012;2023-09-19T03:41:30;15.50;73.29
18581;DHT22;9420;50.876;7.012;2023-09-19T03:43:56;15.51;72.98
18581;DHT22;9420;50.876;7.012;2023-09-19T03:46:24;15.47;73.11
18581;DHT22;9420;50.876;7.012;2023-09-19T03:48:52;15.54;72.99
18581;DHT22;9420;50.876;7.012;2023-09-19T03:51:19;15.53;72.79
18581;DHT22;9420;50.876;7.012;2023-09-19T03:53:46;15.53;72.28
18581;DHT22;9420;50.876;7.012;2023-09-19T03:56:14;15.57;72.48
18581;DHT22;9420;50.876;7.012;2023-09-19T03:58:41;15.50;72.65
18581;DHT22;9420;50.876;7.012;2023-09-19T04:01:07;15.46;72.84
18581;DHT22;9420;50.876;7.012;2023-09-19T04:03:35;15.49;72.58
18581;DHT22;9420;50.876;7.012;2023-09-19T04:06:11;15.53;71.84
18581;DHT22;9420;50.876;7.012;2023-09-19T04:08:38;15.54;71.93
18581;DHT22;9420;50.876;7.012;2023-09-19T04:11:05;15.61;71.30
18581;DHT22;9420;50.876;7.012;2023-09-19T04:13:31;15.54;71.85
18581;DHT22;9420;50.876;7.012;2023-09-19T04:15:58;15.40;72.06
18581;DHT22;9420;50.876;7.012;2023-09-19T04:18:25;15.53;71.12
18581;DHT22;9420;50.876;7.012;2023-09-19T04:20:53;15.57;71.02
18581;DHT22;9420;50.876;7.012;2023-09-19T04:23:21;15.50;71.21
18581;DHT22;9420;50.876;7.012;2023-09-19T04:25:48;15.51;70.76
18581;DHT22;9420;50.876;7.012;2023-09-19T04:28:15;15.53;70.65
18581;DHT22;9420;50.876;7.012;2023-09-19T04:30:42;15.53;70.72
18581;DHT22;9420;50.876;7.012;2023-09-19T04:33:09;15.61;69.77
18581;DHT22;9420;50.876;7.012;2023-09-19T04:35:37;15.64;69.81
18581;DHT22;9420;50.876;7.012;2023-09-19T04:38:05;15.81;68.44
18581;DHT22;9420;50.876;7.012;2023-09-19T04:40:32;15.67;69.24
18581;DHT22;9420;50.876;7.012;2023-09-19T04:42:59;15.66;69.50
18581;DHT22;9420;50.876;7.012;2023-09-19T04:45:27;15.49;70.10
18581;DHT22;9420;50.876;7.012;2023-09-19T04:47:54;15.49;70.00
18581;DHT22;9420;50.876;7.012;2023-09-19T04:50:21;15.36;70.57
18581;DHT22;9420;50.876;7.012;2023-09-19T04:52:50;15.47;69.87
18581;DHT22;9420;50.876;7.012;2023-09-19T04:55:18;15.51;69.70
18581;DHT22;9420;50.876;7.012;2023-09-19T04:57:46;15.51;70.21
18581;DHT22;9420;50.876;7.012;2023-09-19T05:00:14;15.22;71.72
18581;DHT22;9420;50.876;7.012;2023-09-19T05:02:42;15.11;71.96
18581;DHT22;9420;50.876;7.012;2023-09-19T05:05:10;15.08;72.05
18581;DHT22;9420;50.876;7.012;2023-09-19T05:07:38;14.89;73.27
18581;DHT22;9420;50.876;7.012;2023-09-19T05:10:06;14.74;73.59
18581;DHT22;9420;50.876;7.012;2023-09-19T05:12:34;14.72;73.21
18581;DHT22;9420;50.876;7.012;2023-09-19T05:15:02;14.70;73.92
18581;DHT22;9420;50.876;7.012;2023-09-19T05:17:29;14.64;74.60
18581;DHT22;9420;50.876;7.012;2023-09-19T05:19:56;14.47;75.21
18581;DHT22;9420;50.876;7.012;2023-09-19T05:22:23;14.43;74.97
18581;DHT22;9420;50.876;7.012;2023-09-19T05:24:50;14.47;74.77
18581;DHT22;9420;50.876;7.012;2023-09-19T05:27:18;14.24;76.31
18581;DHT22;9420;50.876;7.012;2023-09-19T05:29:48;14.33;75.74
18581;DHT22;9420;50.876;7.012;2023-09-19T05:32:16;14.22;76.60
18581;DHT22;9420;50.876;7.012;2023-09-19T05:34:44;14.17;77.04
18581;DHT22;9420;50.876;7.012;2023-09-19T05:37:12;14.36;76.10
18581;DHT22;9420;50.876;7.012;2023-09-19T05:39:41;14.50;74.83
18581;DHT22;9420;50.876;7.012;2023-09-19T05:42:08;14.45;75.98
18581;DHT22;9420;50.876;7.012;2023-09-19T05:44:34;14.51;75.75
18581;DHT22;9420;50.876;7.012;2023-09-19T05:47:03;14.60;75.46
18581;DHT22;9420;50.876;7.012;2023-09-19T05:49:30;14.64;74.95
18581;DHT22;9420;50.876;7.012;2023-09-19T05:51:56;14.54;74.38
18581;DHT22;9420;50.876;7.012;2023-09-19T05:54:24;14.53;75.20
18581;DHT22;9420;50.876;7.012;2023-09-19T05:56:51;14.57;74.84
18581;DHT22;9420;50.876;7.012;2023-09-19T05:59:18;14.59;75.55
18581;DHT22;9420;50.876;7.012;2023-09-19T06:01:45;14.63;74.98
18581;DHT22;9420;50.876;7.012;2023-09-19T06:04:13;14.59;75.07
18581;DHT22;9420;50.876;7.012;2023-09-19T06:06:40;14.64;75.16
18581;DHT22;9420;50.876;7.012;2023-09-19T06:09:07;14.68;75.03
18581;DHT22;9420;50.876;7.012;2023-09-19T06:11:34;14.63;74.90
18581;DHT22;9420;50.876;7.012;2023-09-19T06:14:01;14.67;75.04
18581;DHT22;9420;50.876;7.012;2023-09-19T06:16:28;14.71;75.45
18581;DHT22;9420;50.876;7.012;2023-09-19T06:18:55;14.71;74.49
18581;DHT22;9420;50.876;7.012;2023-09-19T06:21:23;14.72;74.79
18581;DHT22;9420;50.876;7.012;2023-09-19T06:23:50;14.78;75.61
18581;DHT22;9420;50.876;7.012;2023-09-19T06:26:17;14.77;75.79
18581;DHT22;9420;50.876;7.012;2023-09-19T06:28:44;14.72;75.62
18581;DHT22;9420;50.876;7.012;2023-09-19T06:31:11;14.88;75.84
18581;DHT22;9420;50.876;7.012;2023-09-19T06:33:39;14.88;76.27
18581;DHT22;9420;50.876;7.012;2023-09-19T06:36:06;14.99;74.54
18581;DHT22;9420;50.876;7.012;2023-09-19T06:38:34;14.99;74.51
18581;DHT22;9420;50.876;7.012;2023-09-19T06:41:01;14.98;74.54
18581;DHT22;9420;50.876;7.012;2023-09-19T06:43:30;15.08;75.27
18581;DHT22;9420;50.876;7.012;2023-09-19T06:45:59;15.13;73.79
18581;DHT22;9420;50.876;7.012;2023-09-19T06:48:25;15.19;74.01
18581;DHT22;9420;50.876;7.012;2023-09-19T06:50:54;15.20;74.94
18581;DHT22;9420;50.876;7.012;2023-09-19T06:53:23;15.28;73.47
18581;DHT22;9420;50.876;7.012;2023-09-19T06:55:51;15.47;74.09
18581;DHT22;9420;50.876;7.012;2023-09-19T06:58:18;15.50;74.53
18581;DHT22;9420;50.876;7.012;2023-09-19T07:00:45;15.54;73.74
18581;DHT22;9420;50.876;7.012;2023-09-19T07:03:13;15.63;72.94
18581;DHT22;9420;50.876;7.012;2023-09-19T07:05:41;15.66;72.95
18581;DHT22;9420;50.876;7.012;2023-09-19T07:08:09;15.71;72.98
18581;DHT22;9420;50.876;7.012;2023-09-19T07:10:39;15.76;72.03
18581;DHT22;9420;50.876;7.012;2023-09-19T07:13:08;15.78;72.00
18581;DHT22;9420;50.876;7.012;2023-09-19T07:15:36;15.83;72.36
18581;DHT22;9420;50.876;7.012;2023-09-19T07:18:05;15.90;72.91
18581;DHT22;9420;50.876;7.012;2023-09-19T07:20:32;15.91;72.10
18581;DHT22;9420;50.876;7.012;2023-09-19T07:22:59;16.04;72.57
18581;DHT22;9420;50.876;7.012;2023-09-19T07:25:26;16.15;71.28
18581;DHT22;9420;50.876;7.012;2023-09-19T07:27:55;16.05;72.10
18581;DHT22;9420;50.876;7.012;2023-09-19T07:30:23;16.18;71.83
18581;DHT22;9420;50.876;7.012;2023-09-19T07:32:50;16.22;71.59
18581;DHT22;9420;50.876;7.012;2023-09-19T07:35:18;16.32;71.48
18581;DHT22;9420;50.876;7.012;2023-09-19T07:37:45;16.38;70.83
18581;DHT22;9420;50.876;7.012;2023-09-19T07:40:14;16.49;70.32
18581;DHT22;9420;50.876;7.012;2023-09-19T07:42:41;16.59;71.49
18581;DHT22;9420;50.876;7.012;2023-09-19T07:45:10;16.55;70.36
18581;DHT22;9420;50.876;7.012;2023-09-19T07:47:44;16.59;70.64
18581;DHT22;9420;50.876;7.012;2023-09-19T07:50:10;16.65;70.27
18581;DHT22;9420;50.876;7.012;2023-09-19T07:52:37;16.69;69.74
18581;DHT22;9420;50.876;7.012;2023-09-19T07:55:05;16.81;70.56
18581;DHT22;9420;50.876;7.012;2023-09-19T07:57:34;16.97;70.24
18581;DHT22;9420;50.876;7.012;2023-09-19T08:00:01;17.10;69.88
18581;DHT22;9420;50.876;7.012;2023-09-19T08:02:30;17.13;70.28
18581;DHT22;9420;50.876;7.012;2023-09-19T08:04:58;17.02;69.65
18581;DHT22;9420;50.876;7.012;2023-09-19T08:07:28;17.02;69.57
18581;DHT22;9420;50.876;7.012;2023-09-19T08:09:55;16.97;68.88
18581;DHT22;9420;50.876;7.012;2023-09-19T08:12:23;17.06;68.64
18581;DHT22;9420;50.876;7.012;2023-09-19T08:14:50;17.15;68.16
18581;DHT22;9420;50.876;7.012;2023-09-19T08:17:17;17.20;68.40
18581;DHT22;9420;50.876;7.012;2023-09-19T08:19:45;17.28;67.79
18581;DHT22;9420;50.876;7.012;2023-09-19T08:22:13;17.46;70.06
18581;DHT22;9420;50.876;7.012;2023-09-19T08:24:42;17.52;67.61
18581;DHT22;9420;50.876;7.012;2023-09-19T08:27:09;17.46;68.73
18581;DHT22;9420;50.876;7.012;2023-09-19T08:29:37;17.48;67.20
18581;DHT22;9420;50.876;7.012;2023-09-19T08:32:04;17.48;67.13
18581;DHT22;9420;50.876;7.012;2023-09-19T08:34:31;17.75;68.79
18581;DHT22;9420;50.876;7.012;2023-09-19T08:36:59;17.86;67.38
18581;DHT22;9420;50.876;7.012;2023-09-19T08:39:27;17.81;66.86
18581;DHT22;9420;50.876;7.012;2023-09-19T08:41:59;17.81;67.36
18581;DHT22;9420;50.876;7.012;2023-09-19T08:44:27;18.07;67.43
18581;DHT22;9420;50.876;7.012;2023-09-19T08:47:00;18.02;66.20
18581;DHT22;9420;50.876;7.012;2023-09-19T08:49:33;18.21;67.51
18581;DHT22;9420;50.876;7.012;2023-09-19T08:52:10;18.16;66.32
18581;DHT22;9420;50.876;7.012;2023-09-19T08:54:42;18.03;65.61
18581;DHT22;9420;50.876;7.012;2023-09-19T08:57:10;18.27;65.96
18581;DHT22;9420;50.876;7.012;2023-09-19T08:59:41;18.41;66.12
18581;DHT22;9420;50.876;7.012;2023-09-19T09:02:11;18.44;65.32
18581;DHT22;9420;50.876;7.012;2023-09-19T09:04:39;18.40;65.90
18581;DHT22;9420;50.876;7.012;2023-09-19T09:07:10;18.36;64.97
18581;DHT22;9420;50.876;7.012;2023-09-19T09:09:37;18.40;66.41
18581;DHT22;9420;50.876;7.012;2023-09-19T09:12:11;18.29;64.70
18581;DHT22;9420;50.876;7.012;2023-09-19T09:14:38;18.24;64.65
18581;DHT22;9420;50.876;7.012;2023-09-19T09:17:05;18.37;64.88
18581;DHT22;9420;50.876;7.012;2023-09-19T09:19:32;18.48;64.39
18581;DHT22;9420;50.876;7.012;2023-09-19T09:22:06;18.55;65.24
18581;DHT22;9420;50.876;7.012;2023-09-19T09:24:33;18.48;65.23
18581;DHT22;9420;50.876;7.012;2023-09-19T09:27:04;18.58;63.78
18581;DHT22;9420;50.876;7.012;2023-09-19T09:29:44;18.54;63.09
18581;DHT22;9420;50.876;7.012;2023-09-19T09:32:19;18.69;62.00
18581;DHT22;9420;50.876;7.012;2023-09-19T09:34:48;18.81;63.37
18581;DHT22;9420;50.876;7.012;2023-09-19T09:37:15;18.95;64.26
18581;DHT22;9420;50.876;7.012;2023-09-19T09:39:52;18.98;63.60
18581;DHT22;9420;50.876;7.012;2023-09-19T09:42:31;19.10;62.60
18581;DHT22;9420;50.876;7.012;2023-09-19T09:45:15;19.30;62.90
18581;DHT22;9420;50.876;7.012;2023-09-19T09:47:43;19.20;62.63
18581;DHT22;9420;50.876;7.012;2023-09-19T09:50:23;19.29;63.05
18581;DHT22;9420;50.876;7.012;2023-09-19T09:52:55;19.53;62.86
18581;DHT22;9420;50.876;7.012;2023-09-19T09:55:26;19.63;62.32
18581;DHT22;9420;50.876;7.012;2023-09-19T09:58:16;19.58;61.97
18581;DHT22;9420;50.876;7.012;2023-09-19T10:00:53;19.50;62.16
18581;DHT22;9420;50.876;7.012;2023-09-19T10:03:31;19.26;62.11
18581;DHT22;9420;50.876;7.012;2023-09-19T10:05:59;19.24;62.39
18581;DHT22;9420;50.876;7.012;2023-09-19T10:08:34;19.56;62.85
18581;DHT22;9420;50.876;7.012;2023-09-19T10:11:15;19.79;61.48
18581;DHT22;9420;50.876;7.012;2023-09-19T10:13:46;20.05;60.75
18581;DHT22;9420;50.876;7.012;2023-09-19T10:16:15;20.22;60.99
18581;DHT22;9420;50.876;7.012;2023-09-19T10:18:44;20.87;62.60
18581;DHT22;9420;50.876;7.012;2023-09-19T10:21:12;21.05;59.31
18581;DHT22;9420;50.876;7.012;2023-09-19T10:23:40;20.49;57.81
18581;DHT22;9420;50.876;7.012;2023-09-19T10:26:08;21.04;61.06
18581;DHT22;9420;50.876;7.012;2023-09-19T10:28:35;20.74;58.49
18581;DHT22;9420;50.876;7.012;2023-09-19T10:31:03;20.90;59.92
18581;DHT22;9420;50.876;7.012;2023-09-19T10:33:36;20.84;56.76
18581;DHT22;9420;50.876;7.012;2023-09-19T10:36:04;21.17;56.03
18581;DHT22;9420;50.876;7.012;2023-09-19T10:38:33;21.24;57.83
18581;DHT22;9420;50.876;7.012;2023-09-19T10:41:01;20.76;57.00
18581;DHT22;9420;50.876;7.012;2023-09-19T10:43:30;21.28;55.89
18581;DHT22;9420;50.876;7.012;2023-09-19T10:46:01;22.25;55.84
18581;DHT22;9420;50.876;7.012;2023-09-19T10:48:29;21.52;56.64
18581;DHT22;9420;50.876;7.012;2023-09-19T10:51:04;22.49;56.41
18581;DHT22;9420;50.876;7.012;2023-09-19T10:53:41;21.49;54.34
18581;DHT22;9420;50.876;7.012;2023-09-19T10:56:09;21.72;54.83
18581;DHT22;9420;50.876;7.012;2023-09-19T10:58:43;21.25;54.41
18581;DHT22;9420;50.876;7.012;2023-09-19T11:01:10;21.27;55.47
18581;DHT22;9420;50.876;7.012;2023-09-19T11:03:38;21.60;56.26
18581;DHT22;9420;50.876;7.012;2023-09-19T11:06:12;21.93;53.71
18581;DHT22;9420;50.876;7.012;2023-09-19T11:08:52;22.24;52.83
18581;DHT22;9420;50.876;7.012;2023-09-19T11:11:44;22.88;53.39
18581;DHT22;9420;50.876;7.012;2023-09-19T11:14:30;22.52;53.34
18581;DHT22;9420;50.876;7.012;2023-09-19T11:17:31;23.06;53.28
18581;DHT22;9420;50.876;7.012;2023-09-19T11:20:24;23.28;49.92
18581;DHT22;9420;50.876;7.012;2023-09-19T11:23:21;23.31;52.43
18581;DHT22;9420;50.876;7.012;2023-09-19T11:25:53;22.85;51.80
18581;DHT22;9420;50.876;7.012;2023-09-19T11:28:34;21.90;53.44
18581;DHT22;9420;50.876;7.012;2023-09-19T11:31:41;22.61;52.62
18581;DHT22;9420;50.876;7.012;2023-09-19T11:34:41;22.66;50.76
18581;DHT22;9420;50.876;7.012;2023-09-19T11:40:15;23.94;49.51
18581;DHT22;9420;50.876;7.012;2023-09-19T11:42:43;24.10;48.15
18581;DHT22;9420;50.876;7.012;2023-09-19T11:48:12;24.19;46.51
18581;DHT22;9420;50.876;7.012;2023-09-19T11:50:41;24.81;45.74
18581;DHT22;9420;50.876;7.012;2023-09-19T11:53:09;25.70;47.67
18581;DHT22;9420;50.876;7.012;2023-09-19T11:55:38;24.99;44.91
18581;DHT22;9420;50.876;7.012;2023-09-19T11:58:06;25.65;43.56
18581;DHT22;9420;50.876;7.012;2023-09-19T12:00:34;24.81;44.13
18581;DHT22;9420;50.876;7.012;2023-09-19T12:03:05;25.86;44.18
18581;DHT22;9420;50.876;7.012;2023-09-19T12:05:34;24.73;44.58
18581;DHT22;9420;50.876;7.012;2023-09-19T12:08:03;23.64;47.51
18581;DHT22;9420;50.876;7.012;2023-09-19T12:10:33;25.21;44.66
18581;DHT22;9420;50.876;7.012;2023-09-19T12:13:02;26.80;43.10
18581;DHT22;9420;50.876;7.012;2023-09-19T12:15:31;26.31;41.73
18581;DHT22;9420;50.876;7.012;2023-09-19T12:18:04;27.07;41.64
18581;DHT22;9420;50.876;7.012;2023-09-19T12:20:42;26.95;40.98
18581;DHT22;9420;50.876;7.012;2023-09-19T12:23:13;26.99;41.69
18581;DHT22;9420;50.876;7.012;2023-09-19T12:25:42;27.55;41.54
18581;DHT22;9420;50.876;7.012;2023-09-19T12:28:13;27.14;40.63
18581;DHT22;9420;50.876;7.012;2023-09-19T12:30:42;27.06;42.38
18581;DHT22;9420;50.876;7.012;2023-09-19T12:33:15;26.04;43.16
18581;DHT22;9420;50.876;7.012;2023-09-19T12:35:44;26.25;42.18
18581;DHT22;9420;50.876;7.012;2023-09-19T12:38:11;26.11;43.19
18581;DHT22;9420;50.876;7.012;2023-09-19T12:40:39;26.18;42.47
18581;DHT22;9420;50.876;7.012;2023-09-19T12:43:08;27.40;39.70
18581;DHT22;9420;50.876;7.012;2023-09-19T12:45:42;26.22;42.60
18581;DHT22;9420;50.876;7.012;2023-09-19T12:48:23;27.47;43.31
18581;DHT22;9420;50.876;7.012;2023-09-19T12:51:03;25.04;45.43
18581;DHT22;9420;50.876;7.012;2023-09-19T12:53:32;27.46;40.22
18581;DHT22;9420;50.876;7.012;2023-09-19T12:55:59;28.17;38.65
18581;DHT22;9420;50.876;7.012;2023-09-19T12:58:26;27.57;40.70
18581;DHT22;9420;50.876;7.012;2023-09-19T13:00:54;27.20;40.25
18581;DHT22;9420;50.876;7.012;2023-09-19T13:03:26;26.69;40.56
18581;DHT22;9420;50.876;7.012;2023-09-19T13:05:55;27.91;40.82
18581;DHT22;9420;50.876;7.012;2023-09-19T13:08:26;26.21;44.06
18581;DHT22;9420;50.876;7.012;2023-09-19T13:11:02;25.07;45.03
18581;DHT22;9420;50.876;7.012;2023-09-19T13:13:28;25.73;44.51
18581;DHT22;9420;50.876;7.012;2023-09-19T13:15:56;26.37;41.98
18581;DHT22;9420;50.876;7.012;2023-09-19T13:18:23;26.17;43.46
18581;DHT22;9420;50.876;7.012;2023-09-19T13:21:05;26.25;43.13
18581;DHT22;9420;50.876;7.012;2023-09-19T13:23:35;26.90;42.47
18581;DHT22;9420;50.876;7.012;2023-09-19T13:26:02;27.74;42.10
18581;DHT22;9420;50.876;7.012;2023-09-19T13:28:29;25.35;44.30
18581;DHT22;9420;50.876;7.012;2023-09-19T13:30:58;26.13;43.09
18581;DHT22;9420;50.876;7.012;2023-09-19T13:33:24;26.01;43.83
18581;DHT22;9420;50.876;7.012;2023-09-19T13:35:51;26.88;41.15
18581;DHT22;9420;50.876;7.012;2023-09-19T13:38:18;26.31;43.59
18581;DHT22;9420;50.876;7.012;2023-09-19T13:40:47;25.96;41.78
18581;DHT22;9420;50.876;7.012;2023-09-19T13:43:18;26.13;44.53
18581;DHT22;9420;50.876;7.012;2023-09-19T13:45:47;23.88;45.53
18581;DHT22;9420;50.876;7.012;2023-09-19T13:48:16;26.05;44.09
18581;DHT22;9420;50.876;7.012;2023-09-19T13:50:45;24.80;43.49
18581;DHT22;9420;50.876;7.012;2023-09-19T13:53:12;23.78;47.04
18581;DHT22;9420;50.876;7.012;2023-09-19T13:55:38;24.22;46.10
18581;DHT22;9420;50.876;7.012;2023-09-19T13:58:05;25.05;44.22
18581;DHT22;9420;50.876;7.012;2023-09-19T14:00:33;25.45;46.18
18581;DHT22;9420;50.876;7.012;2023-09-19T14:03:00;26.89;42.15
18581;DHT22;9420;50.876;7.012;2023-09-19T14:05:29;25.93;42.79
18581;DHT22;9420;50.876;7.012;2023-09-19T14:07:56;24.18;46.61
18581;DHT22;9420;50.876;7.012;2023-09-19T14:10:22;23.09;48.59
18581;DHT22;9420;50.876;7.012;2023-09-19T14:12:49;23.57;48.19
18581;DHT22;9420;50.876;7.012;2023-09-19T14:15:16;23.03;49.69
18581;DHT22;9420;50.876;7.012;2023-09-19T14:17:42;22.21;50.07
18581;DHT22;9420;50.876;7.012;2023-09-19T14:20:11;23.26;49.01
18581;DHT22;9420;50.876;7.012;2023-09-19T14:22:39;22.69;50.24
18581;DHT22;9420;50.876;7.012;2023-09-19T14:25:06;22.43;50.30
18581;DHT22;9420;50.876;7.012;2023-09-19T14:27:34;22.77;51.38
18581;DHT22;9420;50.876;7.012;2023-09-19T14:30:00;22.13;51.21
18581;DHT22;9420;50.876;7.012;2023-09-19T14:32:27;22.10;52.37
18581;DHT22;9420;50.876;7.012;2023-09-19T14:34:54;21.94;53.38
18581;DHT22;9420;50.876;7.012;2023-09-19T14:37:20;22.18;52.61
18581;DHT22;9420;50.876;7.012;2023-09-19T14:39:48;22.24;52.59
18581;DHT22;9420;50.876;7.012;2023-09-19T14:42:15;22.48;51.96
18581;DHT22;9420;50.876;7.012;2023-09-19T14:44:43;22.10;51.98
18581;DHT22;9420;50.876;7.012;2023-09-19T14:47:10;21.93;51.62
18581;DHT22;9420;50.876;7.012;2023-09-19T14:49:38;22.34;50.78
18581;DHT22;9420;50.876;7.012;2023-09-19T14:52:07;22.35;51.25
18581;DHT22;9420;50.876;7.012;2023-09-19T14:54:35;23.22;48.96
18581;DHT22;9420;50.876;7.012;2023-09-19T14:57:04;21.87;51.25
18581;DHT22;9420;50.876;7.012;2023-09-19T14:59:32;23.55;47.51
18581;DHT22;9420;50.876;7.012;2023-09-19T15:02:02;22.65;50.95
18581;DHT22;9420;50.876;7.012;2023-09-19T15:04:29;22.24;50.62
18581;DHT22;9420;50.876;7.012;2023-09-19T15:06:56;22.47;50.36
18581;DHT22;9420;50.876;7.012;2023-09-19T15:09:23;23.34;48.53
18581;DHT22;9420;50.876;7.012;2023-09-19T15:11:51;24.41;47.35
18581;DHT22;9420;50.876;7.012;2023-09-19T15:14:19;24.19;46.41
18581;DHT22;9420;50.876;7.012;2023-09-19T15:16:46;22.91;50.11
18581;DHT22;9420;50.876;7.012;2023-09-19T15:19:13;22.27;51.28
18581;DHT22;9420;50.876;7.012;2023-09-19T15:21:40;22.01;52.36
18581;DHT22;9420;50.876;7.012;2023-09-19T15:24:07;22.35;52.32
18581;DHT22;9420;50.876;7.012;2023-09-19T15:26:35;21.77;52.16
18581;DHT22;9420;50.876;7.012;2023-09-19T15:29:06;21.53;53.05
18581;DHT22;9420;50.876;7.012;2023-09-19T15:31:34;21.59;53.77
18581;DHT22;9420;50.876;7.012;2023-09-19T15:34:02;21.37;52.65
18581;DHT22;9420;50.876;7.012;2023-09-19T15:36:29;21.32;54.24
18581;DHT22;9420;50.876;7.012;2023-09-19T15:38:58;21.07;54.32
18581;DHT22;9420;50.876;7.012;2023-09-19T15:41:25;21.05;54.04
18581;DHT22;9420;50.876;7.012;2023-09-19T15:43:52;21.07;54.87
18581;DHT22;9420;50.876;7.012;2023-09-19T15:46:19;21.08;53.94
18581;DHT22;9420;50.876;7.012;2023-09-19T15:48:47;21.04;54.40
18581;DHT22;9420;50.876;7.012;2023-09-19T15:51:14;20.97;54.37
18581;DHT22;9420;50.876;7.012;2023-09-19T15:53:42;20.92;54.86
18581;DHT22;9420;50.876;7.012;2023-09-19T15:56:10;20.97;54.88
18581;DHT22;9420;50.876;7.012;2023-09-19T15:58:37;21.05;55.60
18581;DHT22;9420;50.876;7.012;2023-09-19T16:01:05;21.08;54.74
18581;DHT22;9420;50.876;7.012;2023-09-19T16:03:34;21.39;53.43
18581;DHT22;9420;50.876;7.012;2023-09-19T16:06:07;21.17;54.66